McCurtain, Oklahoma
Current Conditions -  °F | °C
As of 6:55 AM on Thursday 27 Nov 2014 (Local Time) from KGZL Reporting Station
Clear Clear  
Wind Chill: -6°   Ceiling: Unl
Heat Index: -3°   Visibility: 10mi
Dew Point: -6°   Wind: 5mph
Humidity: 80%   Direction: 320°NW
Pressure: 30.55"   Gusts: NA
Location:  35.15°N, 94.97°W
Report Text: KGZL 271255Z AUTO 32004KT 10SM CLR M03/M06 A3055 RMK AO2
Loading
Personal Weather Stations






























Interactive Weather Map New forecast layout! Learn more

10-Day Weather Forecast

Advertisements
Track Severe Weather on mobile